Glendale Springs, North Carolina
Current Conditions -  °F | °C
As of 5:15 PM on Wednesday 22 Oct 2014 (Local Time) from KGEV Reporting Station
Broken Clouds Broken Clouds  
Wind Chill: 38°   Ceiling: 3000
Heat Index: 45°   Visibility: 10mi
Dew Point: 34°   Wind: 15mph
Humidity: 65%   Direction: 310°NW
Pressure: 30.1"   Gusts: 21mph
Location:  36.35°N, 81.38°W
Report Text: KGEV 222115Z AUTO 31013G18KT 10SM SCT023 BKN030 07/01 A3010 RMK AO2 T00710010
Loading
Personal Weather Stations






























Interactive Weather Map New forecast layout! Learn more

10-Day Weather Forecast

Advertisements
Track Severe Weather on mobile